sensor_id;sensor_type;location;lat;lon;timestamp;P1;durP1;ratioP1;P2;durP2;ratioP2
57842;SDS011;43673;51.058;3.734;2023-10-09T00:01:39;16.90;;;10.10;;
57842;SDS011;43673;51.058;3.734;2023-10-09T00:06:39;15.60;;;9.75;;
57842;SDS011;43673;51.058;3.734;2023-10-09T00:09:07;13.60;;;9.98;;
57842;SDS011;43673;51.058;3.734;2023-10-09T00:11:53;14.90;;;9.18;;
57842;SDS011;43673;51.058;3.734;2023-10-09T00:14:22;15.10;;;10.13;;
57842;SDS011;43673;51.058;3.734;2023-10-09T00:16:55;16.35;;;9.23;;
57842;SDS011;43673;51.058;3.734;2023-10-09T00:19:41;16.67;;;10.15;;
57842;SDS011;43673;51.058;3.734;2023-10-09T00:22:08;17.58;;;10.00;;
57842;SDS011;43673;51.058;3.734;2023-10-09T00:24:54;15.35;;;8.93;;
57842;SDS011;43673;51.058;3.734;2023-10-09T00:27:41;13.85;;;9.52;;
57842;SDS011;43673;51.058;3.734;2023-10-09T00:30:15;19.38;;;10.30;;
57842;SDS011;43673;51.058;3.734;2023-10-09T00:32:43;14.13;;;9.80;;
57842;SDS011;43673;51.058;3.734;2023-10-09T00:35:32;14.75;;;9.55;;
57842;SDS011;43673;51.058;3.734;2023-10-09T00:38:02;14.02;;;10.30;;
57842;SDS011;43673;51.058;3.734;2023-10-09T00:40:39;18.95;;;10.18;;
57842;SDS011;43673;51.058;3.734;2023-10-09T00:43:11;23.92;;;11.50;;
57842;SDS011;43673;51.058;3.734;2023-10-09T00:45:41;14.00;;;9.70;;
57842;SDS011;43673;51.058;3.734;2023-10-09T00:48:09;18.08;;;10.45;;
57842;SDS011;43673;51.058;3.734;2023-10-09T00:50:39;17.73;;;11.95;;
57842;SDS011;43673;51.058;3.734;2023-10-09T00:53:12;15.38;;;9.25;;
57842;SDS011;43673;51.058;3.734;2023-10-09T00:55:43;18.52;;;9.95;;
57842;SDS011;43673;51.058;3.734;2023-10-09T00:58:20;13.55;;;9.60;;
57842;SDS011;43673;51.058;3.734;2023-10-09T01:00:56;15.70;;;9.50;;
57842;SDS011;43673;51.058;3.734;2023-10-09T01:03:24;15.85;;;9.95;;
57842;SDS011;43673;51.058;3.734;2023-10-09T01:05:52;14.35;;;10.18;;
57842;SDS011;43673;51.058;3.734;2023-10-09T01:08:25;16.08;;;10.30;;
57842;SDS011;43673;51.058;3.734;2023-10-09T01:11:00;16.30;;;10.30;;
57842;SDS011;43673;51.058;3.734;2023-10-09T01:13:35;19.52;;;10.90;;
57842;SDS011;43673;51.058;3.734;2023-10-09T01:16:18;15.65;;;10.57;;
57842;SDS011;43673;51.058;3.734;2023-10-09T01:18:49;14.48;;;11.13;;
57842;SDS011;43673;51.058;3.734;2023-10-09T01:21:16;16.92;;;10.50;;
57842;SDS011;43673;51.058;3.734;2023-10-09T01:23:46;21.75;;;11.77;;
57842;SDS011;43673;51.058;3.734;2023-10-09T01:26:27;11.38;;;9.70;;
57842;SDS011;43673;51.058;3.734;2023-10-09T01:29:21;16.90;;;11.02;;
57842;SDS011;43673;51.058;3.734;2023-10-09T01:31:52;13.95;;;9.45;;
57842;SDS011;43673;51.058;3.734;2023-10-09T01:34:26;19.25;;;11.80;;
57842;SDS011;43673;51.058;3.734;2023-10-09T01:37:08;19.13;;;10.40;;
57842;SDS011;43673;51.058;3.734;2023-10-09T01:39:44;14.98;;;10.73;;
57842;SDS011;43673;51.058;3.734;2023-10-09T01:42:10;15.38;;;11.10;;
57842;SDS011;43673;51.058;3.734;2023-10-09T01:44:48;17.27;;;11.60;;
57842;SDS011;43673;51.058;3.734;2023-10-09T01:47:14;17.92;;;10.77;;
57842;SDS011;43673;51.058;3.734;2023-10-09T01:49:43;21.38;;;11.52;;
57842;SDS011;43673;51.058;3.734;2023-10-09T01:52:09;20.77;;;11.07;;
57842;SDS011;43673;51.058;3.734;2023-10-09T01:54:42;16.25;;;11.38;;
57842;SDS011;43673;51.058;3.734;2023-10-09T01:57:16;16.50;;;10.88;;
57842;SDS011;43673;51.058;3.734;2023-10-09T01:59:47;19.90;;;10.63;;
57842;SDS011;43673;51.058;3.734;2023-10-09T02:02:15;14.73;;;10.73;;
57842;SDS011;43673;51.058;3.734;2023-10-09T02:04:51;16.48;;;10.27;;
57842;SDS011;43673;51.058;3.734;2023-10-09T02:07:18;17.45;;;10.73;;
57842;SDS011;43673;51.058;3.734;2023-10-09T02:09:55;17.00;;;11.57;;
57842;SDS011;43673;51.058;3.734;2023-10-09T02:12:21;18.13;;;11.48;;
57842;SDS011;43673;51.058;3.734;2023-10-09T02:14:48;16.80;;;12.70;;
57842;SDS011;43673;51.058;3.734;2023-10-09T02:19:45;18.00;;;10.93;;
57842;SDS011;43673;51.058;3.734;2023-10-09T02:22:15;17.38;;;11.85;;
57842;SDS011;43673;51.058;3.734;2023-10-09T02:24:42;20.02;;;12.73;;
57842;SDS011;43673;51.058;3.734;2023-10-09T02:27:23;18.35;;;11.90;;
57842;SDS011;43673;51.058;3.734;2023-10-09T02:30:09;17.58;;;11.48;;
57842;SDS011;43673;51.058;3.734;2023-10-09T02:32:40;21.67;;;12.93;;
57842;SDS011;43673;51.058;3.734;2023-10-09T02:35:07;25.27;;;12.68;;
57842;SDS011;43673;51.058;3.734;2023-10-09T02:37:46;17.27;;;11.97;;
57842;SDS011;43673;51.058;3.734;2023-10-09T02:40:12;17.42;;;11.57;;
57842;SDS011;43673;51.058;3.734;2023-10-09T02:42:51;22.45;;;12.68;;
57842;SDS011;43673;51.058;3.734;2023-10-09T02:45:17;17.92;;;11.98;;
57842;SDS011;43673;51.058;3.734;2023-10-09T02:47:44;24.20;;;11.63;;
57842;SDS011;43673;51.058;3.734;2023-10-09T02:50:13;19.57;;;13.77;;
57842;SDS011;43673;51.058;3.734;2023-10-09T02:52:46;18.20;;;12.00;;
57842;SDS011;43673;51.058;3.734;2023-10-09T02:55:13;23.50;;;13.27;;
57842;SDS011;43673;51.058;3.734;2023-10-09T02:57:48;21.25;;;13.25;;
57842;SDS011;43673;51.058;3.734;2023-10-09T03:00:21;21.50;;;14.05;;
57842;SDS011;43673;51.058;3.734;2023-10-09T03:02:54;23.17;;;12.85;;
57842;SDS011;43673;51.058;3.734;2023-10-09T03:05:23;21.58;;;13.88;;
57842;SDS011;43673;51.058;3.734;2023-10-09T03:07:54;22.40;;;14.25;;
57842;SDS011;43673;51.058;3.734;2023-10-09T03:10:23;21.27;;;14.15;;
57842;SDS011;43673;51.058;3.734;2023-10-09T03:15:21;25.50;;;14.65;;
57842;SDS011;43673;51.058;3.734;2023-10-09T03:17:47;19.90;;;14.13;;
57842;SDS011;43673;51.058;3.734;2023-10-09T03:20:14;22.50;;;14.88;;
57842;SDS011;43673;51.058;3.734;2023-10-09T03:22:44;20.58;;;14.27;;
57842;SDS011;43673;51.058;3.734;2023-10-09T03:25:10;23.20;;;14.93;;
57842;SDS011;43673;51.058;3.734;2023-10-09T03:27:45;24.92;;;16.13;;
57842;SDS011;43673;51.058;3.734;2023-10-09T03:30:14;24.77;;;15.30;;
57842;SDS011;43673;51.058;3.734;2023-10-09T03:32:48;22.35;;;15.27;;
57842;SDS011;43673;51.058;3.734;2023-10-09T03:35:21;23.42;;;15.68;;
57842;SDS011;43673;51.058;3.734;2023-10-09T03:37:51;24.65;;;16.20;;
57842;SDS011;43673;51.058;3.734;2023-10-09T03:40:22;23.45;;;16.13;;
57842;SDS011;43673;51.058;3.734;2023-10-09T03:42:48;25.60;;;16.05;;
57842;SDS011;43673;51.058;3.734;2023-10-09T03:45:14;23.65;;;15.50;;
57842;SDS011;43673;51.058;3.734;2023-10-09T03:48:00;25.98;;;17.08;;
57842;SDS011;43673;51.058;3.734;2023-10-09T03:50:46;28.70;;;18.83;;
57842;SDS011;43673;51.058;3.734;2023-10-09T03:53:12;23.02;;;16.95;;
57842;SDS011;43673;51.058;3.734;2023-10-09T03:55:39;25.90;;;18.75;;
57842;SDS011;43673;51.058;3.734;2023-10-09T03:58:08;29.00;;;18.85;;
57842;SDS011;43673;51.058;3.734;2023-10-09T04:00:38;28.55;;;18.85;;
57842;SDS011;43673;51.058;3.734;2023-10-09T04:03:10;24.70;;;18.58;;
57842;SDS011;43673;51.058;3.734;2023-10-09T04:05:36;28.85;;;20.15;;
57842;SDS011;43673;51.058;3.734;2023-10-09T04:08:02;28.35;;;19.00;;
57842;SDS011;43673;51.058;3.734;2023-10-09T04:10:37;29.73;;;20.58;;
57842;SDS011;43673;51.058;3.734;2023-10-09T04:13:12;31.45;;;18.55;;
57842;SDS011;43673;51.058;3.734;2023-10-09T04:15:42;34.92;;;22.25;;
57842;SDS011;43673;51.058;3.734;2023-10-09T04:18:08;31.67;;;21.27;;
57842;SDS011;43673;51.058;3.734;2023-10-09T04:20:40;29.80;;;20.98;;
57842;SDS011;43673;51.058;3.734;2023-10-09T04:23:26;33.00;;;22.58;;
57842;SDS011;43673;51.058;3.734;2023-10-09T04:26:21;32.47;;;22.02;;
57842;SDS011;43673;51.058;3.734;2023-10-09T04:28:47;33.92;;;22.63;;
57842;SDS011;43673;51.058;3.734;2023-10-09T04:31:17;30.55;;;21.48;;
57842;SDS011;43673;51.058;3.734;2023-10-09T04:33:45;33.03;;;23.17;;
57842;SDS011;43673;51.058;3.734;2023-10-09T04:36:31;33.05;;;22.60;;
57842;SDS011;43673;51.058;3.734;2023-10-09T04:39:11;30.58;;;21.42;;
57842;SDS011;43673;51.058;3.734;2023-10-09T04:41:37;30.63;;;21.10;;
57842;SDS011;43673;51.058;3.734;2023-10-09T04:44:09;32.50;;;21.58;;
57842;SDS011;43673;51.058;3.734;2023-10-09T04:46:45;26.85;;;19.92;;
57842;SDS011;43673;51.058;3.734;2023-10-09T04:49:30;31.52;;;21.23;;
57842;SDS011;43673;51.058;3.734;2023-10-09T04:52:10;35.05;;;21.20;;
57842;SDS011;43673;51.058;3.734;2023-10-09T04:54:58;31.52;;;20.77;;
57842;SDS011;43673;51.058;3.734;2023-10-09T05:02:55;35.08;;;22.42;;
57842;SDS011;43673;51.058;3.734;2023-10-09T05:05:48;36.35;;;23.25;;
57842;SDS011;43673;51.058;3.734;2023-10-09T05:08:23;33.13;;;22.98;;
57842;SDS011;43673;51.058;3.734;2023-10-09T05:10:53;34.92;;;23.38;;
57842;SDS011;43673;51.058;3.734;2023-10-09T05:13:24;32.92;;;21.63;;
57842;SDS011;43673;51.058;3.734;2023-10-09T05:18:54;32.90;;;22.92;;
57842;SDS011;43673;51.058;3.734;2023-10-09T05:24:02;31.42;;;23.17;;
57842;SDS011;43673;51.058;3.734;2023-10-09T05:26:48;34.77;;;22.87;;
57842;SDS011;43673;51.058;3.734;2023-10-09T05:31:44;29.58;;;23.08;;
57842;SDS011;43673;51.058;3.734;2023-10-09T05:34:27;35.58;;;22.33;;
57842;SDS011;43673;51.058;3.734;2023-10-09T05:37:06;38.75;;;23.00;;
57842;SDS011;43673;51.058;3.734;2023-10-09T05:40:04;37.78;;;25.08;;
57842;SDS011;43673;51.058;3.734;2023-10-09T05:42:34;36.45;;;22.60;;
57842;SDS011;43673;51.058;3.734;2023-10-09T05:45:07;42.08;;;25.60;;
57842;SDS011;43673;51.058;3.734;2023-10-09T05:47:49;36.00;;;23.23;;
57842;SDS011;43673;51.058;3.734;2023-10-09T05:50:21;33.72;;;22.65;;
57842;SDS011;43673;51.058;3.734;2023-10-09T05:52:48;35.85;;;22.17;;
57842;SDS011;43673;51.058;3.734;2023-10-09T05:55:17;34.50;;;22.50;;
57842;SDS011;43673;51.058;3.734;2023-10-09T05:58:12;36.60;;;22.33;;
57842;SDS011;43673;51.058;3.734;2023-10-09T06:00:56;32.92;;;22.40;;
57842;SDS011;43673;51.058;3.734;2023-10-09T06:03:40;29.27;;;21.50;;
57842;SDS011;43673;51.058;3.734;2023-10-09T06:06:19;33.00;;;23.58;;
57842;SDS011;43673;51.058;3.734;2023-10-09T06:11:34;31.42;;;22.05;;
57842;SDS011;43673;51.058;3.734;2023-10-09T06:14:03;33.40;;;22.33;;
57842;SDS011;43673;51.058;3.734;2023-10-09T06:16:40;32.80;;;22.98;;
57842;SDS011;43673;51.058;3.734;2023-10-09T06:19:08;35.58;;;22.75;;
57842;SDS011;43673;51.058;3.734;2023-10-09T06:21:51;32.85;;;23.25;;
57842;SDS011;43673;51.058;3.734;2023-10-09T06:24:39;35.70;;;22.73;;
57842;SDS011;43673;51.058;3.734;2023-10-09T06:27:12;32.47;;;21.88;;
57842;SDS011;43673;51.058;3.734;2023-10-09T06:29:39;28.60;;;21.05;;
57842;SDS011;43673;51.058;3.734;2023-10-09T06:32:09;33.00;;;23.63;;
57842;SDS011;43673;51.058;3.734;2023-10-09T06:34:43;31.45;;;21.45;;
57842;SDS011;43673;51.058;3.734;2023-10-09T06:37:23;28.88;;;22.23;;
57842;SDS011;43673;51.058;3.734;2023-10-09T06:39:52;32.05;;;23.17;;
57842;SDS011;43673;51.058;3.734;2023-10-09T06:42:24;36.28;;;23.30;;
57842;SDS011;43673;51.058;3.734;2023-10-09T06:45:03;34.05;;;22.95;;
57842;SDS011;43673;51.058;3.734;2023-10-09T06:47:49;34.42;;;23.92;;
57842;SDS011;43673;51.058;3.734;2023-10-09T06:50:21;31.50;;;23.20;;
57842;SDS011;43673;51.058;3.734;2023-10-09T06:52:52;36.08;;;22.35;;
57842;SDS011;43673;51.058;3.734;2023-10-09T06:55:36;33.00;;;22.65;;
57842;SDS011;43673;51.058;3.734;2023-10-09T06:58:18;35.03;;;23.30;;
57842;SDS011;43673;51.058;3.734;2023-10-09T07:00:54;41.15;;;24.75;;
57842;SDS011;43673;51.058;3.734;2023-10-09T07:03:27;32.03;;;22.23;;
57842;SDS011;43673;51.058;3.734;2023-10-09T07:06:08;36.72;;;23.95;;
57842;SDS011;43673;51.058;3.734;2023-10-09T07:08:48;37.45;;;23.23;;
57842;SDS011;43673;51.058;3.734;2023-10-09T07:11:38;36.05;;;23.13;;
57842;SDS011;43673;51.058;3.734;2023-10-09T07:16:54;33.10;;;21.98;;
57842;SDS011;43673;51.058;3.734;2023-10-09T07:19:26;37.08;;;25.13;;
57842;SDS011;43673;51.058;3.734;2023-10-09T07:21:59;40.92;;;23.88;;
57842;SDS011;43673;51.058;3.734;2023-10-09T07:24:31;33.42;;;22.85;;
57842;SDS011;43673;51.058;3.734;2023-10-09T07:29:39;34.30;;;21.75;;
57842;SDS011;43673;51.058;3.734;2023-10-09T07:32:14;31.00;;;20.92;;
57842;SDS011;43673;51.058;3.734;2023-10-09T07:34:47;29.70;;;22.58;;
57842;SDS011;43673;51.058;3.734;2023-10-09T07:37:26;35.47;;;22.52;;
57842;SDS011;43673;51.058;3.734;2023-10-09T07:40:03;33.50;;;21.70;;
57842;SDS011;43673;51.058;3.734;2023-10-09T07:42:33;32.40;;;23.08;;
57842;SDS011;43673;51.058;3.734;2023-10-09T07:45:02;29.60;;;21.00;;
57842;SDS011;43673;51.058;3.734;2023-10-09T07:47:48;33.30;;;21.63;;
57842;SDS011;43673;51.058;3.734;2023-10-09T07:50:36;34.35;;;22.58;;
57842;SDS011;43673;51.058;3.734;2023-10-09T07:53:15;42.83;;;25.33;;
57842;SDS011;43673;51.058;3.734;2023-10-09T07:55:51;35.90;;;22.77;;
57842;SDS011;43673;51.058;3.734;2023-10-09T07:58:26;29.40;;;22.17;;
57842;SDS011;43673;51.058;3.734;2023-10-09T08:00:54;33.53;;;24.05;;
57842;SDS011;43673;51.058;3.734;2023-10-09T08:03:35;31.92;;;22.10;;
57842;SDS011;43673;51.058;3.734;2023-10-09T08:06:01;38.17;;;21.60;;
57842;SDS011;43673;51.058;3.734;2023-10-09T08:08:46;34.70;;;22.85;;
57842;SDS011;43673;51.058;3.734;2023-10-09T08:11:28;32.85;;;21.75;;
57842;SDS011;43673;51.058;3.734;2023-10-09T08:14:13;34.33;;;21.23;;
57842;SDS011;43673;51.058;3.734;2023-10-09T08:16:58;29.45;;;19.60;;
57842;SDS011;43673;51.058;3.734;2023-10-09T08:19:47;41.85;;;22.67;;
57842;SDS011;43673;51.058;3.734;2023-10-09T08:22:28;34.47;;;21.70;;
57842;SDS011;43673;51.058;3.734;2023-10-09T08:24:55;29.90;;;20.35;;
57842;SDS011;43673;51.058;3.734;2023-10-09T08:30:00;30.73;;;21.13;;
57842;SDS011;43673;51.058;3.734;2023-10-09T08:32:38;28.27;;;21.42;;
57842;SDS011;43673;51.058;3.734;2023-10-09T08:35:04;30.52;;;21.27;;
57842;SDS011;43673;51.058;3.734;2023-10-09T08:37:44;29.63;;;21.13;;
57842;SDS011;43673;51.058;3.734;2023-10-09T08:40:13;32.97;;;22.67;;
57842;SDS011;43673;51.058;3.734;2023-10-09T08:42:44;31.58;;;21.45;;
57842;SDS011;43673;51.058;3.734;2023-10-09T08:45:14;30.48;;;20.98;;
57842;SDS011;43673;51.058;3.734;2023-10-09T08:47:47;36.88;;;23.23;;
57842;SDS011;43673;51.058;3.734;2023-10-09T08:50:14;36.33;;;22.50;;
57842;SDS011;43673;51.058;3.734;2023-10-09T08:52:40;30.25;;;22.13;;
57842;SDS011;43673;51.058;3.734;2023-10-09T08:55:06;34.92;;;23.83;;
57842;SDS011;43673;51.058;3.734;2023-10-09T08:57:32;35.60;;;23.33;;
57842;SDS011;43673;51.058;3.734;2023-10-09T08:59:58;33.03;;;21.23;;
57842;SDS011;43673;51.058;3.734;2023-10-09T09:02:24;34.10;;;24.05;;
57842;SDS011;43673;51.058;3.734;2023-10-09T09:04:51;37.63;;;23.73;;
57842;SDS011;43673;51.058;3.734;2023-10-09T09:07:29;40.63;;;24.80;;
57842;SDS011;43673;51.058;3.734;2023-10-09T09:10:14;31.83;;;22.25;;
57842;SDS011;43673;51.058;3.734;2023-10-09T09:12:46;39.63;;;25.05;;
57842;SDS011;43673;51.058;3.734;2023-10-09T09:15:27;33.58;;;22.10;;
57842;SDS011;43673;51.058;3.734;2023-10-09T09:18:06;33.55;;;22.75;;
57842;SDS011;43673;51.058;3.734;2023-10-09T09:20:36;31.35;;;23.83;;
57842;SDS011;43673;51.058;3.734;2023-10-09T09:25:46;32.42;;;23.67;;
57842;SDS011;43673;51.058;3.734;2023-10-09T09:28:15;32.47;;;22.95;;
57842;SDS011;43673;51.058;3.734;2023-10-09T09:30:47;33.58;;;23.77;;
57842;SDS011;43673;51.058;3.734;2023-10-09T09:33:22;32.40;;;23.27;;
57842;SDS011;43673;51.058;3.734;2023-10-09T09:36:08;31.35;;;23.50;;
57842;SDS011;43673;51.058;3.734;2023-10-09T09:38:39;34.55;;;23.10;;
57842;SDS011;43673;51.058;3.734;2023-10-09T09:41:15;32.97;;;22.42;;
57842;SDS011;43673;51.058;3.734;2023-10-09T09:43:58;32.85;;;24.08;;
57842;SDS011;43673;51.058;3.734;2023-10-09T09:46:33;42.78;;;24.13;;
57842;SDS011;43673;51.058;3.734;2023-10-09T09:49:03;35.55;;;22.90;;
57842;SDS011;43673;51.058;3.734;2023-10-09T09:51:32;37.10;;;22.88;;
57842;SDS011;43673;51.058;3.734;2023-10-09T09:54:01;45.83;;;25.10;;
57842;SDS011;43673;51.058;3.734;2023-10-09T09:56:28;31.80;;;23.08;;
57842;SDS011;43673;51.058;3.734;2023-10-09T09:58:57;34.28;;;23.17;;
57842;SDS011;43673;51.058;3.734;2023-10-09T10:01:28;40.33;;;22.50;;
57842;SDS011;43673;51.058;3.734;2023-10-09T10:04:18;32.08;;;22.15;;
57842;SDS011;43673;51.058;3.734;2023-10-09T10:06:46;37.40;;;23.77;;
57842;SDS011;43673;51.058;3.734;2023-10-09T10:12:04;28.80;;;21.48;;
57842;SDS011;43673;51.058;3.734;2023-10-09T10:20:26;32.35;;;22.08;;
57842;SDS011;43673;51.058;3.734;2023-10-09T10:23:15;31.27;;;21.33;;
57842;SDS011;43673;51.058;3.734;2023-10-09T10:25:42;28.38;;;20.48;;
57842;SDS011;43673;51.058;3.734;2023-10-09T10:28:21;32.30;;;20.98;;
57842;SDS011;43673;51.058;3.734;2023-10-09T10:30:54;25.77;;;19.92;;
57842;SDS011;43673;51.058;3.734;2023-10-09T10:33:20;33.53;;;22.10;;
57842;SDS011;43673;51.058;3.734;2023-10-09T10:35:48;29.83;;;21.48;;
57842;SDS011;43673;51.058;3.734;2023-10-09T10:38:32;32.13;;;21.20;;
57842;SDS011;43673;51.058;3.734;2023-10-09T10:41:15;30.23;;;21.55;;
57842;SDS011;43673;51.058;3.734;2023-10-09T10:43:45;30.00;;;22.50;;
57842;SDS011;43673;51.058;3.734;2023-10-09T10:46:14;31.13;;;20.95;;
57842;SDS011;43673;51.058;3.734;2023-10-09T10:48:55;32.58;;;22.23;;
57842;SDS011;43673;51.058;3.734;2023-10-09T10:51:28;30.25;;;21.25;;
57842;SDS011;43673;51.058;3.734;2023-10-09T10:54:02;29.67;;;21.83;;
57842;SDS011;43673;51.058;3.734;2023-10-09T10:56:49;31.48;;;22.25;;
57842;SDS011;43673;51.058;3.734;2023-10-09T10:59:17;29.17;;;20.80;;
57842;SDS011;43673;51.058;3.734;2023-10-09T11:01:53;33.17;;;23.67;;
57842;SDS011;43673;51.058;3.734;2023-10-09T11:04:25;30.13;;;21.27;;
57842;SDS011;43673;51.058;3.734;2023-10-09T11:06:54;29.05;;;20.45;;
57842;SDS011;43673;51.058;3.734;2023-10-09T11:09:59;27.92;;;19.70;;
57842;SDS011;43673;51.058;3.734;2023-10-09T11:12:28;31.83;;;21.63;;
57842;SDS011;43673;51.058;3.734;2023-10-09T11:15:09;32.67;;;21.38;;
57842;SDS011;43673;51.058;3.734;2023-10-09T11:20:29;27.23;;;19.30;;
57842;SDS011;43673;51.058;3.734;2023-10-09T11:23:00;32.15;;;19.98;;
57842;SDS011;43673;51.058;3.734;2023-10-09T11:25:35;25.02;;;19.52;;
57842;SDS011;43673;51.058;3.734;2023-10-09T11:30:54;31.83;;;18.77;;
57842;SDS011;43673;51.058;3.734;2023-10-09T11:36:16;24.88;;;17.30;;
57842;SDS011;43673;51.058;3.734;2023-10-09T11:38:56;25.02;;;18.10;;
57842;SDS011;43673;51.058;3.734;2023-10-09T11:41:45;26.02;;;18.17;;
57842;SDS011;43673;51.058;3.734;2023-10-09T11:44:14;23.60;;;16.23;;
57842;SDS011;43673;51.058;3.734;2023-10-09T11:46:59;24.77;;;17.23;;
57842;SDS011;43673;51.058;3.734;2023-10-09T11:50:02;26.10;;;18.05;;
57842;SDS011;43673;51.058;3.734;2023-10-09T11:52:28;28.27;;;18.42;;
57842;SDS011;43673;51.058;3.734;2023-10-09T11:54:58;28.92;;;18.27;;
57842;SDS011;43673;51.058;3.734;2023-10-09T11:57:24;24.73;;;17.70;;
57842;SDS011;43673;51.058;3.734;2023-10-09T12:00:04;26.38;;;18.42;;
57842;SDS011;43673;51.058;3.734;2023-10-09T12:02:50;28.95;;;19.02;;
57842;SDS011;43673;51.058;3.734;2023-10-09T12:05:17;27.17;;;17.63;;
57842;SDS011;43673;51.058;3.734;2023-10-09T12:07:47;27.95;;;18.75;;
57842;SDS011;43673;51.058;3.734;2023-10-09T12:10:20;22.00;;;16.42;;
57842;SDS011;43673;51.058;3.734;2023-10-09T12:12:51;21.42;;;16.33;;
57842;SDS011;43673;51.058;3.734;2023-10-09T12:15:17;24.23;;;18.30;;
57842;SDS011;43673;51.058;3.734;2023-10-09T12:17:44;26.42;;;16.25;;
57842;SDS011;43673;51.058;3.734;2023-10-09T12:20:12;23.52;;;16.85;;
57842;SDS011;43673;51.058;3.734;2023-10-09T12:22:55;22.45;;;16.27;;
57842;SDS011;43673;51.058;3.734;2023-10-09T12:25:23;28.67;;;17.75;;
57842;SDS011;43673;51.058;3.734;2023-10-09T12:27:49;24.20;;;18.60;;
57842;SDS011;43673;51.058;3.734;2023-10-09T12:30:15;26.40;;;18.05;;
57842;SDS011;43673;51.058;3.734;2023-10-09T12:32:41;24.80;;;17.92;;
57842;SDS011;43673;51.058;3.734;2023-10-09T12:35:06;30.42;;;18.15;;
57842;SDS011;43673;51.058;3.734;2023-10-09T12:37:42;24.33;;;16.70;;
57842;SDS011;43673;51.058;3.734;2023-10-09T12:40:08;29.48;;;17.95;;
57842;SDS011;43673;51.058;3.734;2023-10-09T12:42:36;20.98;;;16.45;;
57842;SDS011;43673;51.058;3.734;2023-10-09T12:45:02;24.90;;;16.27;;
57842;SDS011;43673;51.058;3.734;2023-10-09T12:47:33;22.63;;;16.95;;
57842;SDS011;43673;51.058;3.734;2023-10-09T12:50:02;26.20;;;18.33;;
57842;SDS011;43673;51.058;3.734;2023-10-09T12:52:34;26.58;;;17.48;;
57842;SDS011;43673;51.058;3.734;2023-10-09T12:55:02;23.70;;;18.08;;
57842;SDS011;43673;51.058;3.734;2023-10-09T12:57:33;25.25;;;18.75;;
57842;SDS011;43673;51.058;3.734;2023-10-09T12:59:59;25.17;;;18.50;;
57842;SDS011;43673;51.058;3.734;2023-10-09T13:02:25;31.85;;;19.00;;
57842;SDS011;43673;51.058;3.734;2023-10-09T13:04:56;26.13;;;18.77;;
57842;SDS011;43673;51.058;3.734;2023-10-09T13:07:24;29.85;;;17.80;;
57842;SDS011;43673;51.058;3.734;2023-10-09T13:09:50;27.77;;;18.33;;
57842;SDS011;43673;51.058;3.734;2023-10-09T13:12:34;29.23;;;17.45;;
57842;SDS011;43673;51.058;3.734;2023-10-09T13:15:06;24.45;;;16.20;;
57842;SDS011;43673;51.058;3.734;2023-10-09T13:17:36;24.83;;;17.98;;
57842;SDS011;43673;51.058;3.734;2023-10-09T13:20:02;22.38;;;14.80;;
57842;SDS011;43673;51.058;3.734;2023-10-09T13:22:37;21.88;;;14.93;;
57842;SDS011;43673;51.058;3.734;2023-10-09T13:25:07;24.73;;;15.77;;
57842;SDS011;43673;51.058;3.734;2023-10-09T13:27:40;23.75;;;15.00;;
57842;SDS011;43673;51.058;3.734;2023-10-09T13:30:06;24.02;;;13.05;;
57842;SDS011;43673;51.058;3.734;2023-10-09T13:32:35;26.23;;;13.90;;
57842;SDS011;43673;51.058;3.734;2023-10-09T13:35:03;22.13;;;13.43;;
57842;SDS011;43673;51.058;3.734;2023-10-09T13:37:29;15.75;;;12.57;;
57842;SDS011;43673;51.058;3.734;2023-10-09T13:39:57;21.15;;;14.25;;
57842;SDS011;43673;51.058;3.734;2023-10-09T13:42:23;20.85;;;13.10;;
57842;SDS011;43673;51.058;3.734;2023-10-09T13:44:51;19.92;;;13.48;;
57842;SDS011;43673;51.058;3.734;2023-10-09T13:47:19;20.30;;;12.68;;
57842;SDS011;43673;51.058;3.734;2023-10-09T13:49:46;22.73;;;12.07;;
57842;SDS011;43673;51.058;3.734;2023-10-09T13:52:16;19.38;;;11.95;;
57842;SDS011;43673;51.058;3.734;2023-10-09T13:54:47;21.83;;;10.57;;
57842;SDS011;43673;51.058;3.734;2023-10-09T13:57:15;19.90;;;10.65;;
57842;SDS011;43673;51.058;3.734;2023-10-09T13:59:42;18.58;;;11.38;;
57842;SDS011;43673;51.058;3.734;2023-10-09T14:02:14;17.00;;;10.23;;
57842;SDS011;43673;51.058;3.734;2023-10-09T14:04:44;17.73;;;12.98;;
57842;SDS011;43673;51.058;3.734;2023-10-09T14:07:12;18.75;;;12.05;;
57842;SDS011;43673;51.058;3.734;2023-10-09T14:09:41;30.38;;;14.75;;
57842;SDS011;43673;51.058;3.734;2023-10-09T14:12:31;22.80;;;11.35;;
57842;SDS011;43673;51.058;3.734;2023-10-09T14:14:57;19.23;;;11.82;;
57842;SDS011;43673;51.058;3.734;2023-10-09T14:17:25;17.23;;;11.48;;
57842;SDS011;43673;51.058;3.734;2023-10-09T14:19:53;23.42;;;13.75;;
57842;SDS011;43673;51.058;3.734;2023-10-09T14:22:26;28.17;;;13.15;;
57842;SDS011;43673;51.058;3.734;2023-10-09T14:24:52;21.63;;;12.57;;
57842;SDS011;43673;51.058;3.734;2023-10-09T14:27:22;23.83;;;12.55;;
57842;SDS011;43673;51.058;3.734;2023-10-09T14:29:51;20.75;;;13.07;;
57842;SDS011;43673;51.058;3.734;2023-10-09T14:32:21;19.63;;;12.15;;
57842;SDS011;43673;51.058;3.734;2023-10-09T14:35:09;15.95;;;11.38;;
57842;SDS011;43673;51.058;3.734;2023-10-09T14:37:41;23.13;;;13.25;;
57842;SDS011;43673;51.058;3.734;2023-10-09T14:40:07;20.20;;;13.68;;
57842;SDS011;43673;51.058;3.734;2023-10-09T14:42:41;23.33;;;13.90;;
57842;SDS011;43673;51.058;3.734;2023-10-09T14:45:10;24.27;;;13.73;;
57842;SDS011;43673;51.058;3.734;2023-10-09T14:47:43;23.08;;;15.05;;
57842;SDS011;43673;51.058;3.734;2023-10-09T14:50:12;21.83;;;14.93;;
57842;SDS011;43673;51.058;3.734;2023-10-09T14:52:38;21.67;;;14.93;;
57842;SDS011;43673;51.058;3.734;2023-10-09T14:55:05;25.70;;;16.20;;
57842;SDS011;43673;51.058;3.734;2023-10-09T14:57:31;27.27;;;16.90;;
57842;SDS011;43673;51.058;3.734;2023-10-09T15:00:03;25.05;;;16.35;;
57842;SDS011;43673;51.058;3.734;2023-10-09T15:02:38;25.80;;;16.25;;
57842;SDS011;43673;51.058;3.734;2023-10-09T15:05:04;20.48;;;13.68;;
57842;SDS011;43673;51.058;3.734;2023-10-09T15:07:35;25.98;;;14.70;;
57842;SDS011;43673;51.058;3.734;2023-10-09T15:10:04;23.63;;;15.32;;
57842;SDS011;43673;51.058;3.734;2023-10-09T15:12:30;25.45;;;16.55;;
57842;SDS011;43673;51.058;3.734;2023-10-09T15:14:58;24.35;;;15.23;;
57842;SDS011;43673;51.058;3.734;2023-10-09T15:17:24;19.92;;;14.00;;
57842;SDS011;43673;51.058;3.734;2023-10-09T15:19:50;28.45;;;15.95;;
57842;SDS011;43673;51.058;3.734;2023-10-09T15:22:21;27.45;;;17.10;;
57842;SDS011;43673;51.058;3.734;2023-10-09T15:27:27;26.90;;;15.68;;
57842;SDS011;43673;51.058;3.734;2023-10-09T15:29:54;25.33;;;14.52;;
57842;SDS011;43673;51.058;3.734;2023-10-09T15:32:20;30.52;;;16.95;;
57842;SDS011;43673;51.058;3.734;2023-10-09T15:34:48;24.98;;;15.90;;
57842;SDS011;43673;51.058;3.734;2023-10-09T15:37:14;22.58;;;15.45;;
57842;SDS011;43673;51.058;3.734;2023-10-09T15:39:42;24.45;;;15.10;;
57842;SDS011;43673;51.058;3.734;2023-10-09T15:42:08;25.67;;;15.30;;
57842;SDS011;43673;51.058;3.734;2023-10-09T15:44:38;25.75;;;13.65;;
57842;SDS011;43673;51.058;3.734;2023-10-09T15:47:04;24.42;;;15.20;;
57842;SDS011;43673;51.058;3.734;2023-10-09T15:49:33;25.55;;;14.20;;